createdAt,value
2018-05-26T00:00:06.584Z,97534.62
2018-05-26T00:02:34.632Z,97535.95
2018-05-26T00:05:02.172Z,97534.16
2018-05-26T00:07:29.719Z,97527.98
2018-05-26T00:09:57.245Z,97532.71
2018-05-26T00:12:24.804Z,97537.34
2018-05-26T00:14:52.341Z,97533.03
2018-05-26T00:17:20.048Z,97529.59
2018-05-26T00:19:47.577Z,97524.84
2018-05-26T00:22:15.096Z,97533.80
2018-05-26T00:24:43.183Z,97524.89
2018-05-26T00:27:10.709Z,97531.27
2018-05-26T00:29:38.261Z,97526.27
2018-05-26T00:32:05.781Z,97525.27
2018-05-26T00:34:33.344Z,97534.86
2018-05-26T00:37:00.869Z,97535.89
2018-05-26T00:39:28.404Z,97533.16
2018-05-26T00:41:55.960Z,97528.70
2018-05-26T00:44:23.485Z,97529.49
2018-05-26T00:46:51.064Z,97524.30
2018-05-26T00:49:18.597Z,97532.76
2018-05-26T00:51:46.416Z,97531.58
2018-05-26T00:54:13.940Z,97529.09
2018-05-26T00:56:42.381Z,97530.27
2018-05-26T00:59:10.956Z,97522.33
2018-05-26T01:01:38.481Z,97516.63
2018-05-26T01:04:06.026Z,97516.22
2018-05-26T01:06:33.549Z,97511.66
2018-05-26T01:09:01.277Z,97515.08
2018-05-26T01:11:29.673Z,97515.47
2018-05-26T01:13:57.201Z,97509.31
2018-05-26T01:16:24.756Z,97510.34
2018-05-26T01:18:52.396Z,97504.23
2018-05-26T01:21:19.963Z,97505.88
2018-05-26T01:23:47.484Z,97506.84
2018-05-26T01:26:15.356Z,97508.36
2018-05-26T01:28:42.877Z,97511.92
2018-05-26T01:31:10.398Z,97519.56
2018-05-26T01:33:37.989Z,97514.80
2018-05-26T01:36:05.537Z,97515.71
2018-05-26T01:38:33.093Z,97513.74
2018-05-26T01:41:00.615Z,97515.54
2018-05-26T01:43:28.191Z,97514.31
2018-05-26T01:45:55.710Z,97516.63
2018-05-26T01:48:23.270Z,97512.60
2018-05-26T01:50:50.823Z,97513.08
2018-05-26T01:53:18.345Z,97510.17
2018-05-26T01:55:45.894Z,97515.14
2018-05-26T01:58:13.412Z,97516.78
2018-05-26T02:00:40.969Z,97519.92
2018-05-26T02:03:09.313Z,97514.91
2018-05-26T02:05:36.838Z,97506.56
2018-05-26T02:08:04.396Z,97509.23
2018-05-26T02:10:32.734Z,97513.83
2018-05-26T02:13:00.280Z,97517.00
2018-05-26T02:15:27.809Z,97514.38
2018-05-26T02:17:55.357Z,97513.66
2018-05-26T02:20:22.898Z,97509.06
2018-05-26T02:22:50.616Z,97506.16
2018-05-26T02:25:18.128Z,97504.12
2018-05-26T02:27:45.656Z,97512.02
2018-05-26T02:30:13.205Z,97513.16
2018-05-26T02:32:40.729Z,97520.39
2018-05-26T02:35:08.277Z,97519.27
2018-05-26T02:37:35.808Z,97521.72
2018-05-26T02:40:03.331Z,97520.59
2018-05-26T02:42:31.214Z,97521.19
2018-05-26T02:44:58.731Z,97520.33
2018-05-26T02:47:26.314Z,97520.21
2018-05-26T02:49:53.850Z,97522.09
2018-05-26T02:52:21.376Z,97520.97
2018-05-26T02:54:50.035Z,97518.63
2018-05-26T02:57:17.556Z,97525.00
2018-05-26T02:59:45.124Z,97523.08
2018-05-26T03:02:12.657Z,97522.77
2018-05-26T03:04:45.798Z,97523.81
2018-05-26T03:07:18.996Z,97523.10
2018-05-26T03:09:52.136Z,97519.91
2018-05-26T03:12:25.694Z,97528.09
2018-05-26T03:14:52.702Z,97521.87
2018-05-26T03:17:27.777Z,97523.45
2018-05-26T03:19:55.612Z,97526.89
2018-05-26T03:22:23.140Z,97526.06
2018-05-26T03:24:50.665Z,97531.75
2018-05-26T03:27:18.216Z,97533.27
2018-05-26T03:29:45.761Z,97533.78
2018-05-26T03:32:13.291Z,97532.36
2018-05-26T03:34:40.832Z,97539.28
2018-05-26T03:37:08.365Z,97542.25
2018-05-26T03:39:35.901Z,97543.46
2018-05-26T03:42:03.678Z,97545.52
2018-05-26T03:44:31.210Z,97543.05
2018-05-26T03:46:58.735Z,97546.36
2018-05-26T03:49:26.319Z,97547.56
2018-05-26T03:51:53.844Z,97552.16
2018-05-26T03:54:22.486Z,97551.73
2018-05-26T04:00:17.840Z,97554.07
2018-05-26T04:02:45.362Z,97552.98
2018-05-26T04:05:12.926Z,97549.18
2018-05-26T04:07:40.437Z,97550.17
2018-05-26T04:10:08.273Z,97547.61
2018-05-26T04:12:35.987Z,97547.98
2018-05-26T04:15:03.851Z,97549.30
2018-05-26T04:17:31.435Z,97549.42
2018-05-26T04:19:59.008Z,97559.56
2018-05-26T04:22:26.565Z,97561.22
2018-05-26T04:24:54.088Z,97559.03
2018-05-26T04:27:21.793Z,97559.56
2018-05-26T04:29:49.308Z,97571.09
2018-05-26T04:32:16.833Z,97570.11
2018-05-26T04:34:44.389Z,97566.59
2018-05-26T04:37:12.163Z,97566.47
2018-05-26T04:39:40.012Z,97578.58
2018-05-26T04:42:07.639Z,97585.27
2018-05-26T04:44:35.510Z,97581.18
2018-05-26T04:47:03.068Z,97586.90
2018-05-26T04:49:31.059Z,97581.28
2018-05-26T04:51:58.833Z,97583.36
2018-05-26T04:54:26.391Z,97582.20
2018-05-26T04:56:53.940Z,97583.17
2018-05-26T04:59:21.494Z,97579.69
2018-05-26T05:01:49.436Z,97585.41
2018-05-26T05:04:16.960Z,97589.34
2018-05-26T05:06:45.209Z,97592.22
2018-05-26T05:09:12.813Z,97590.19
2018-05-26T05:11:40.349Z,97587.25
2018-05-26T05:14:07.908Z,97582.81
2018-05-26T05:16:35.437Z,97590.02
2018-05-26T05:19:03.060Z,97597.23
2018-05-26T05:21:30.590Z,97595.00
2018-05-26T05:23:58.133Z,97601.29
2018-05-26T05:26:25.684Z,97600.52
2018-05-26T05:28:53.231Z,97604.73
2018-05-26T05:31:20.781Z,97600.16
2018-05-26T05:33:48.308Z,97614.28
2018-05-26T05:36:16.109Z,97612.40
2018-05-26T05:38:43.664Z,97607.63
2018-05-26T05:41:11.192Z,97609.50
2018-05-26T05:43:38.756Z,97602.69
2018-05-26T05:46:06.280Z,97604.31
2018-05-26T05:48:34.424Z,97611.63
2018-05-26T05:51:01.949Z,97611.77
2018-05-26T05:53:32.409Z,97609.05
2018-05-26T05:55:59.925Z,97611.91
2018-05-26T05:58:27.472Z,97605.70
2018-05-26T06:00:55.061Z,97612.12
2018-05-26T06:03:22.583Z,97609.31
2018-05-26T06:05:50.132Z,97610.86
2018-05-26T06:08:17.779Z,97613.09
2018-05-26T06:10:45.532Z,97608.50
2018-05-26T06:13:13.085Z,97614.95
2018-05-26T06:15:40.604Z,97621.58
2018-05-26T06:18:08.152Z,97620.91
2018-05-26T06:20:35.681Z,97619.11
2018-05-26T06:23:03.238Z,97623.42
2018-05-26T06:25:30.760Z,97624.48
2018-05-26T06:27:58.324Z,97631.62
2018-05-26T06:30:25.846Z,97627.61
2018-05-26T06:32:53.368Z,97632.91
2018-05-26T06:35:21.958Z,97628.95
2018-05-26T06:37:49.485Z,97631.94
2018-05-26T06:40:17.039Z,97634.35
2018-05-26T06:42:44.566Z,97627.52
2018-05-26T06:45:12.165Z,97633.81
2018-05-26T06:47:39.685Z,97621.16
2018-05-26T06:50:07.210Z,97628.08
2018-05-26T06:52:35.270Z,97631.02
2018-05-26T06:55:03.275Z,97631.55
2018-05-26T06:57:30.859Z,97617.42
2018-05-26T06:59:58.397Z,97621.02
2018-05-26T07:02:26.425Z,97620.95
2018-05-26T07:04:53.961Z,97624.66
2018-05-26T07:07:21.489Z,97629.38
2018-05-26T07:09:49.042Z,97624.77
2018-05-26T07:12:16.562Z,97627.95
2018-05-26T07:14:44.121Z,97625.91
2018-05-26T07:17:11.641Z,97624.38
2018-05-26T07:19:39.217Z,97623.55
2018-05-26T07:22:06.741Z,97623.52
2018-05-26T07:24:34.273Z,97623.17
2018-05-26T07:27:01.833Z,97615.80
2018-05-26T07:29:29.362Z,97618.71
2018-05-26T07:31:56.948Z,97615.83
2018-05-26T07:34:24.473Z,97619.19
2018-05-26T07:36:52.144Z,97622.17
2018-05-26T07:39:19.673Z,97619.17
2018-05-26T07:41:47.192Z,97620.33
2018-05-26T07:44:14.739Z,97621.73
2018-05-26T07:46:42.261Z,97620.66
2018-05-26T07:49:09.842Z,97621.88
2018-05-26T07:51:37.362Z,97623.59
2018-05-26T07:54:05.164Z,97626.30
2018-05-26T07:56:32.689Z,97628.25
2018-05-26T07:59:00.213Z,97634.43
2018-05-26T08:01:27.760Z,97642.06
2018-05-26T08:03:55.284Z,97642.44
2018-05-26T08:06:22.842Z,97642.12
2018-05-26T08:08:50.370Z,97646.39
2018-05-26T08:11:17.940Z,97646.62
2018-05-26T08:13:45.476Z,97647.11
2018-05-26T08:16:13.006Z,97648.88
2018-05-26T08:18:40.544Z,97654.02
2018-05-26T08:21:08.066Z,97650.67
2018-05-26T08:23:35.616Z,97655.81
2018-05-26T08:26:03.140Z,97660.02
2018-05-26T08:28:30.695Z,97662.94
2018-05-26T08:30:58.305Z,97659.00
2018-05-26T08:33:25.838Z,97661.00
2018-05-26T08:35:53.378Z,97656.02
2018-05-26T08:38:20.905Z,97662.41
2018-05-26T08:40:48.455Z,97654.50
2018-05-26T08:43:15.973Z,97659.34
2018-05-26T08:45:43.493Z,97660.63
2018-05-26T08:48:11.049Z,97659.53
2018-05-26T08:50:38.590Z,97655.86
2018-05-26T08:53:06.164Z,97660.79
2018-05-26T08:55:33.685Z,97665.83
2018-05-26T08:58:01.207Z,97665.73
2018-05-26T09:00:29.718Z,97661.16
2018-05-26T09:02:57.240Z,97663.16
2018-05-26T09:05:24.800Z,97657.90
2018-05-26T09:07:52.544Z,97666.67
2018-05-26T09:10:20.438Z,97662.67
2018-05-26T09:12:48.029Z,97659.98
2018-05-26T09:15:16.275Z,97658.50
2018-05-26T09:17:44.755Z,97664.96
2018-05-26T09:20:12.722Z,97662.93
2018-05-26T09:22:40.308Z,97661.20
2018-05-26T09:25:10.583Z,97660.94
2018-05-26T09:27:38.249Z,97661.09
2018-05-26T09:30:06.297Z,97664.33
2018-05-26T09:32:34.104Z,97661.45
2018-05-26T09:35:01.914Z,97664.05
2018-05-26T09:37:29.749Z,97664.70
2018-05-26T09:39:58.427Z,97670.45
2018-05-26T09:42:26.017Z,97668.78
2018-05-26T09:44:54.420Z,97668.21
2018-05-26T09:47:21.972Z,97668.52
2018-05-26T09:49:50.912Z,97667.82
2018-05-26T09:52:19.054Z,97665.75
2018-05-26T09:54:46.888Z,97666.31
2018-05-26T09:57:14.564Z,97663.56
2018-05-26T09:59:42.213Z,97668.48
2018-05-26T10:02:09.753Z,97670.01
2018-05-26T10:04:40.433Z,97666.88
2018-05-26T10:07:08.928Z,97656.06
2018-05-26T10:09:36.632Z,97653.67
2018-05-26T10:12:04.335Z,97667.20
2018-05-26T10:14:31.884Z,97661.45
2018-05-26T10:16:59.799Z,97665.56
2018-05-26T10:19:31.123Z,97664.06
2018-05-26T10:21:59.043Z,97659.48
2018-05-26T10:24:26.731Z,97662.63
2018-05-26T10:26:54.481Z,97661.03
2018-05-26T10:29:22.007Z,97659.84
2018-05-26T10:31:49.528Z,97652.73
2018-05-26T10:34:17.352Z,97652.00
2018-05-26T10:36:44.860Z,97661.54
2018-05-26T10:39:12.443Z,97657.62
2018-05-26T10:41:40.513Z,97661.81
2018-05-26T10:44:08.080Z,97662.57
2018-05-26T10:46:36.655Z,97660.82
2018-05-26T10:49:04.183Z,97661.67
2018-05-26T10:51:31.735Z,97661.56
2018-05-26T10:53:59.272Z,97663.44
2018-05-26T10:56:26.828Z,97668.58
2018-05-26T10:58:54.354Z,97668.05
2018-05-26T11:01:22.120Z,97666.88
2018-05-26T11:03:49.628Z,97670.89
2018-05-26T11:06:17.164Z,97674.42
2018-05-26T11:08:44.720Z,97668.42
2018-05-26T11:11:12.237Z,97668.42
2018-05-26T11:13:40.321Z,97669.34
2018-05-26T11:16:07.986Z,97673.05
2018-05-26T11:18:35.635Z,97669.03
2018-05-26T11:21:03.160Z,97671.06
2018-05-26T11:23:30.731Z,97670.58
2018-05-26T11:25:58.355Z,97667.53
2018-05-26T11:28:25.917Z,97669.04
2018-05-26T11:30:53.506Z,97669.81
2018-05-26T11:33:21.192Z,97670.41
2018-05-26T11:35:48.752Z,97667.38
2018-05-26T11:38:16.308Z,97668.96
2018-05-26T11:40:43.824Z,97671.61
2018-05-26T11:43:11.621Z,97668.00
2018-05-26T11:45:39.257Z,97661.18
2018-05-26T11:48:06.812Z,97654.52
2018-05-26T11:50:34.325Z,97659.72
2018-05-26T11:53:01.845Z,97664.98
2018-05-26T11:55:29.394Z,97666.86
2018-05-26T11:57:56.939Z,97662.20
2018-05-26T12:00:24.488Z,97659.68
2018-05-26T12:02:52.007Z,97654.03
2018-05-26T12:05:19.748Z,97654.63
2018-05-26T12:07:47.648Z,97658.95
2018-05-26T12:10:15.576Z,97654.52
2018-05-26T12:12:44.307Z,97662.50
2018-05-26T12:15:11.833Z,97649.97
2018-05-26T12:17:40.331Z,97651.13
2018-05-26T12:20:08.033Z,97649.42
2018-05-26T12:22:35.779Z,97649.27
2018-05-26T12:25:03.835Z,97642.34
2018-05-26T12:27:31.507Z,97649.56
2018-05-26T12:29:59.274Z,97645.33
2018-05-26T12:32:26.885Z,97642.17
2018-05-26T12:34:55.241Z,97637.11
2018-05-26T12:37:22.873Z,97641.27
2018-05-26T12:39:50.531Z,97642.33
2018-05-26T12:42:18.808Z,97647.47
2018-05-26T12:44:46.380Z,97636.39
2018-05-26T12:47:14.008Z,97647.70
2018-05-26T12:49:42.925Z,97639.35
2018-05-26T12:52:10.467Z,97641.94
2018-05-26T12:54:38.347Z,97638.87
2018-05-26T12:57:05.923Z,97636.43
2018-05-26T12:59:42.129Z,97642.08
2018-05-26T13:02:09.656Z,97639.41
2018-05-26T13:04:37.304Z,97635.39
2018-05-26T13:07:05.129Z,97632.47
2018-05-26T13:09:32.712Z,97627.25
2018-05-26T13:12:00.359Z,97630.78
2018-05-26T13:14:27.921Z,97625.10
2018-05-26T13:16:55.679Z,97616.34
2018-05-26T13:19:23.360Z,97626.66
2018-05-26T13:21:52.915Z,97621.63
2018-05-26T13:24:20.482Z,97616.97
2018-05-26T13:26:48.787Z,97614.42
2018-05-26T13:29:18.308Z,97612.59
2018-05-26T13:31:46.628Z,97611.78
2018-05-26T13:34:14.671Z,97614.88
2018-05-26T13:36:42.217Z,97614.55
2018-05-26T13:39:09.780Z,97618.58
2018-05-26T13:41:41.020Z,97614.50
2018-05-26T13:44:08.542Z,97609.66
2018-05-26T13:46:36.064Z,97606.61
2018-05-26T13:49:03.612Z,97617.05
2018-05-26T13:51:31.280Z,97611.35
2018-05-26T13:53:59.346Z,97616.83
2018-05-26T13:56:26.946Z,97613.59
2018-05-26T13:58:58.418Z,97610.48
2018-05-26T14:01:25.952Z,97611.27
2018-05-26T14:03:53.482Z,97612.41
2018-05-26T14:06:21.020Z,97610.45
2018-05-26T14:08:48.538Z,97604.55
2018-05-26T14:11:16.093Z,97604.08
2018-05-26T14:13:43.613Z,97601.80
2018-05-26T14:16:11.254Z,97598.31
2018-05-26T14:18:38.777Z,97600.27
2018-05-26T14:21:06.328Z,97599.33
2018-05-26T14:23:33.942Z,97606.58
2018-05-26T14:26:01.463Z,97601.33
2018-05-26T14:28:29.024Z,97602.14
2018-05-26T14:30:56.602Z,97604.61
2018-05-26T14:33:24.166Z,97598.09
2018-05-26T14:35:51.756Z,97589.05
2018-05-26T14:38:19.290Z,97596.78
2018-05-26T14:40:46.841Z,97605.70
2018-05-26T14:43:14.384Z,97605.77
2018-05-26T14:45:41.967Z,97606.06
2018-05-26T14:48:09.499Z,97605.41
2018-05-26T14:50:37.185Z,97603.57
2018-05-26T14:53:04.705Z,97614.53
2018-05-26T14:55:32.237Z,97612.17
2018-05-26T14:58:00.028Z,97609.72
2018-05-26T15:00:27.863Z,97615.97
2018-05-26T15:02:55.616Z,97617.83
2018-05-26T15:05:23.154Z,97612.66
2018-05-26T15:07:51.024Z,97613.47
2018-05-26T15:10:18.545Z,97621.40
2018-05-26T15:12:46.239Z,97612.84
2018-05-26T15:15:13.717Z,97607.72
2018-05-26T15:17:41.235Z,97604.70
2018-05-26T15:20:08.781Z,97599.81
2018-05-26T15:22:36.312Z,97611.12
2018-05-26T15:25:05.068Z,97604.58
2018-05-26T15:27:32.591Z,97609.64
2018-05-26T15:30:00.117Z,97614.29
2018-05-26T15:32:27.750Z,97603.83
2018-05-26T15:34:55.280Z,97606.74
2018-05-26T15:37:23.284Z,97606.70
2018-05-26T15:39:52.236Z,97606.91
2018-05-26T15:42:20.116Z,97605.39
2018-05-26T15:44:47.899Z,97603.72
2018-05-26T15:47:15.475Z,97593.14
2018-05-26T15:49:43.401Z,97597.41
2018-05-26T15:52:10.918Z,97584.98
2018-05-26T15:54:38.457Z,97582.90
2018-05-26T15:57:06.184Z,97574.12
2018-05-26T15:59:34.665Z,97575.73
2018-05-26T16:02:02.352Z,97572.80
2018-05-26T16:04:29.864Z,97571.20
2018-05-26T16:06:57.676Z,97564.42
2018-05-26T16:09:25.192Z,97565.28
2018-05-26T16:11:52.997Z,97560.88
2018-05-26T16:14:20.540Z,97558.05
2018-05-26T16:16:48.405Z,97563.05
2018-05-26T16:19:16.393Z,97560.80
2018-05-26T16:21:44.012Z,97557.81
2018-05-26T16:24:11.572Z,97564.03
2018-05-26T16:26:40.303Z,97556.13
2018-05-26T16:29:07.918Z,97556.64
2018-05-26T16:31:35.453Z,97558.90
2018-05-26T16:34:04.616Z,97564.95
2018-05-26T16:36:32.468Z,97563.73
2018-05-26T16:39:00.239Z,97559.92
2018-05-26T16:41:28.013Z,97562.45
2018-05-26T16:43:56.491Z,97566.55
2018-05-26T16:46:24.358Z,97563.94
2018-05-26T16:48:52.225Z,97565.23
2018-05-26T16:51:21.015Z,97567.81
2018-05-26T16:53:48.982Z,97562.08
2018-05-26T16:56:17.558Z,97563.39
2018-05-26T16:58:45.223Z,97565.84
2018-05-26T17:01:12.722Z,97571.59
2018-05-26T17:03:40.272Z,97570.05
2018-05-26T17:06:08.131Z,97576.43
2018-05-26T17:08:36.223Z,97570.11
2018-05-26T17:11:03.757Z,97579.27
2018-05-26T17:13:31.301Z,97575.15
2018-05-26T17:15:58.936Z,97573.55
2018-05-26T17:18:26.523Z,97575.59
2018-05-26T17:20:54.106Z,97579.12
2018-05-26T17:23:21.632Z,97584.59
2018-05-26T17:25:49.693Z,97576.59
2018-05-26T17:28:17.208Z,97584.27
2018-05-26T17:30:44.725Z,97583.94
2018-05-26T17:33:12.514Z,97584.95
2018-05-26T17:35:40.148Z,97590.02
2018-05-26T17:38:07.704Z,97581.97
2018-05-26T17:40:35.227Z,97588.50
2018-05-26T17:43:02.916Z,97595.66
2018-05-26T17:45:30.438Z,97590.63
2018-05-26T17:47:57.995Z,97589.35
2018-05-26T17:50:25.820Z,97590.23
2018-05-26T17:52:54.755Z,97591.45
2018-05-26T17:55:22.894Z,97592.63
2018-05-26T17:57:50.597Z,97593.84
2018-05-26T18:00:18.824Z,97596.27
2018-05-26T18:02:47.328Z,97599.22
2018-05-26T18:05:14.849Z,97602.04
2018-05-26T18:07:42.481Z,97604.60
2018-05-26T18:10:10.175Z,97608.58
2018-05-26T18:12:39.056Z,97616.17
2018-05-26T18:15:06.673Z,97613.31
2018-05-26T18:17:34.641Z,97614.39
2018-05-26T18:20:02.162Z,97614.66
2018-05-26T18:22:29.824Z,97615.11
2018-05-26T18:24:57.751Z,97626.16
2018-05-26T18:27:25.285Z,97621.86
2018-05-26T18:29:52.843Z,97623.29
2018-05-26T18:32:20.361Z,97623.76
2018-05-26T18:34:48.545Z,97616.88
2018-05-26T18:37:16.614Z,97620.78
2018-05-26T18:39:44.137Z,97624.30
2018-05-26T18:42:11.695Z,97624.56
2018-05-26T18:44:39.221Z,97627.00
2018-05-26T18:47:06.830Z,97625.94
2018-05-26T18:49:34.381Z,97626.20
2018-05-26T18:52:02.257Z,97627.42
2018-05-26T18:54:29.780Z,97627.88
2018-05-26T18:56:57.334Z,97628.49
2018-05-26T18:59:24.884Z,97631.09
2018-05-26T19:01:52.405Z,97636.97
2018-05-26T19:04:19.960Z,97637.45
2018-05-26T19:06:47.526Z,97642.24
2018-05-26T19:09:15.044Z,97640.55
2018-05-26T19:11:42.960Z,97641.08
2018-05-26T19:14:10.481Z,97634.70
2018-05-26T19:16:38.128Z,97644.66
2018-05-26T19:19:05.649Z,97640.33
2018-05-26T19:21:33.165Z,97647.93
2018-05-26T19:24:00.721Z,97655.56
2018-05-26T19:26:28.238Z,97657.30
2018-05-26T19:28:55.959Z,97656.28
2018-05-26T19:31:23.492Z,97660.27
2018-05-26T19:33:51.004Z,97668.77
2018-05-26T19:36:18.564Z,97664.52
2018-05-26T19:38:46.101Z,97674.57
2018-05-26T19:41:13.620Z,97679.06
2018-05-26T19:43:41.332Z,97679.23
2018-05-26T19:46:08.877Z,97677.06
2018-05-26T19:48:36.448Z,97681.72
2018-05-26T19:51:04.440Z,97687.03
2018-05-26T19:53:31.985Z,97684.78
2018-05-26T19:55:59.548Z,97692.75
2018-05-26T19:58:27.259Z,97688.88
2018-05-26T20:00:55.375Z,97699.25
2018-05-26T20:03:22.934Z,97698.76
2018-05-26T20:05:50.469Z,97695.30
2018-05-26T20:08:18.005Z,97700.95
2018-05-26T20:10:45.573Z,97703.61
2018-05-26T20:13:13.118Z,97704.00
2018-05-26T20:15:40.721Z,97693.22
2018-05-26T20:18:08.399Z,97694.99
2018-05-26T20:20:35.966Z,97692.99
2018-05-26T20:23:03.512Z,97696.26
2018-05-26T20:25:31.176Z,97696.38
2018-05-26T20:27:58.802Z,97694.05
2018-05-26T20:30:26.321Z,97689.60
2018-05-26T20:32:53.853Z,97681.72
2018-05-26T20:35:21.491Z,97675.59
2018-05-26T20:37:49.089Z,97675.32
2018-05-26T20:40:16.718Z,97672.91
2018-05-26T20:42:44.241Z,97666.99
2018-05-26T20:45:11.781Z,97673.84
2018-05-26T20:47:40.231Z,97673.78
2018-05-26T20:50:07.798Z,97674.88
2018-05-26T20:52:35.326Z,97676.32
2018-05-26T20:55:02.864Z,97673.31
2018-05-26T20:57:30.407Z,97672.17
2018-05-26T20:59:58.025Z,97670.03
2018-05-26T21:02:25.501Z,97668.27
2018-05-26T21:04:53.080Z,97675.34
2018-05-26T21:07:20.607Z,97672.57
2018-05-26T21:09:48.136Z,97674.67
2018-05-26T21:12:15.704Z,97669.27
2018-05-26T21:14:43.385Z,97670.92
2018-05-26T21:17:10.936Z,97665.48
2018-05-26T21:19:38.534Z,97664.63
2018-05-26T21:22:06.082Z,97668.70
2018-05-26T21:24:33.685Z,97674.38
2018-05-26T21:27:01.221Z,97668.02
2018-05-26T21:29:28.946Z,97668.08
2018-05-26T21:31:56.476Z,97665.22
2018-05-26T21:34:24.070Z,97666.89
2018-05-26T21:36:51.638Z,97667.20
2018-05-26T21:39:19.228Z,97671.42
2018-05-26T21:41:47.153Z,97669.04
2018-05-26T21:44:14.714Z,97670.42
2018-05-26T21:46:42.373Z,97667.42
2018-05-26T21:49:10.131Z,97666.63
2018-05-26T21:51:37.797Z,97665.02
2018-05-26T21:54:05.419Z,97665.72
2018-05-26T21:56:33.022Z,97665.73
2018-05-26T21:59:00.565Z,97666.34
2018-05-26T22:01:28.122Z,97666.73
2018-05-26T22:03:55.768Z,97672.41
2018-05-26T22:06:23.668Z,97679.78
2018-05-26T22:08:51.229Z,97695.50
2018-05-26T22:11:18.773Z,97689.45
2018-05-26T22:13:46.594Z,97687.11
2018-05-26T22:16:14.130Z,97692.50
2018-05-26T22:18:41.705Z,97692.59
2018-05-26T22:21:09.261Z,97691.89
2018-05-26T22:23:36.791Z,97698.84
2018-05-26T22:26:04.355Z,97702.25
2018-05-26T22:28:31.908Z,97697.08
2018-05-26T22:30:59.489Z,97697.36
2018-05-26T22:33:27.005Z,97698.73
2018-05-26T22:35:54.549Z,97707.25
2018-05-26T22:38:22.656Z,97712.16
2018-05-26T22:40:50.181Z,97717.91
2018-05-26T22:43:17.745Z,97714.23
2018-05-26T22:45:45.264Z,97709.95
2018-05-26T22:48:12.812Z,97714.27
2018-05-26T22:50:40.332Z,97713.45
2018-05-26T22:53:07.885Z,97711.98
2018-05-26T22:55:35.813Z,97707.33
2018-05-26T22:58:03.341Z,97707.09
2018-05-26T23:00:30.896Z,97698.63
2018-05-26T23:02:58.420Z,97704.98
2018-05-26T23:05:25.981Z,97698.99
2018-05-26T23:07:53.607Z,97699.11
2018-05-26T23:10:21.157Z,97698.59
2018-05-26T23:12:48.712Z,97692.21
2018-05-26T23:15:16.227Z,97690.50
2018-05-26T23:17:43.785Z,97686.47
2018-05-26T23:20:11.317Z,97682.50
2018-05-26T23:22:38.879Z,97678.13
2018-05-26T23:25:06.431Z,97676.28
2018-05-26T23:27:33.981Z,97670.09
2018-05-26T23:30:01.524Z,97665.55
2018-05-26T23:32:29.045Z,97668.70
2018-05-26T23:34:56.601Z,97653.59
2018-05-26T23:37:24.119Z,97650.99
2018-05-26T23:39:51.673Z,97651.39
2018-05-26T23:42:19.192Z,97640.70
2018-05-26T23:44:46.748Z,97635.04
2018-05-26T23:47:14.296Z,97631.73
2018-05-26T23:49:41.820Z,97629.80
2018-05-26T23:52:09.381Z,97631.06
2018-05-26T23:54:36.917Z,97624.92
2018-05-26T23:57:04.472Z,97630.20
2018-05-26T23:59:32.016Z,97621.92
